Time;durP1;ratioP1;P1;durP2;ratioP2;P2;SDS_P1;SDS_P2;PMS_P1;PMS_P2;Temp;Humidity;BMP_temperature;BMP_pressure;BME280_temperature;BME280_humidity;BME280_pressure;Samples;Min_cycle;Max_cycle;Signal;HPM_P1;HPM_P2
2023/07/25 00:00:57;;;;;;;9.65;3.63;;;;;;;-148.88;100.00;-17125.47;5000515;28;20117;-84
2023/07/25 00:03:23;;;;;;;6.07;3.15;;;;;;;-148.88;100.00;-17125.47;5001321;28;20018;-84
2023/07/25 00:05:48;;;;;;;6.95;3.10;;;;;;;-148.88;100.00;-17125.47;5002519;28;20174;-84
2023/07/25 00:08:13;;;;;;;7.78;3.08;;;;;;;-148.88;100.00;-17125.47;5003262;28;20474;-84
2023/07/25 00:10:39;;;;;;;6.70;2.80;;;;;;;-148.88;100.00;-17125.47;5001625;28;20026;-84
2023/07/25 00:13:04;;;;;;;7.30;3.42;;;;;;;-148.88;100.00;-17125.47;5002946;28;20084;-83
2023/07/25 00:15:30;;;;;;;9.88;3.42;;;;;;;-148.88;100.00;-17125.47;5001477;28;20045;-85
2023/07/25 00:17:55;;;;;;;7.20;3.13;;;;;;;-148.88;100.00;-17125.47;5002825;28;20033;-83
2023/07/25 00:20:21;;;;;;;7.85;3.40;;;;;;;-148.88;100.00;-17125.47;4995198;28;20022;-83
2023/07/25 00:22:46;;;;;;;8.35;3.10;;;;;;;-148.88;100.00;-17125.47;4998552;28;20034;-83
2023/07/25 00:25:11;;;;;;;4.90;2.63;;;;;;;-148.88;100.00;-17125.47;4998433;28;20571;-84
2023/07/25 00:27:39;;;;;;;20.15;3.80;;;;;;;-148.88;100.00;-17125.47;4999271;28;20027;-83
2023/07/25 00:30:05;;;;;;;6.90;3.33;;;;;;;-148.88;100.00;-17125.47;5001231;28;20026;-84
2023/07/25 00:32:33;;;;;;;9.25;3.22;;;;;;;-148.88;100.00;-17125.47;5001525;28;20366;-83
2023/07/25 00:34:59;;;;;;;9.20;3.13;;;;;;;-148.88;100.00;-17125.47;5001688;28;20018;-84
2023/07/25 00:37:24;;;;;;;7.07;3.00;;;;;;;-148.88;100.00;-17125.47;5001772;28;20485;-84
2023/07/25 00:39:52;;;;;;;7.53;3.53;;;;;;;-148.88;100.00;-17125.47;5000005;28;20486;-84
2023/07/25 00:42:18;;;;;;;7.38;3.35;;;;;;;-148.88;100.00;-17125.47;5000984;28;20432;-84
2023/07/25 00:44:43;;;;;;;8.68;3.90;;;;;;;-148.88;100.00;-17125.47;5001765;28;20476;-83
2023/07/25 00:47:09;;;;;;;8.50;3.30;;;;;;;-148.88;100.00;-17125.47;5000831;28;20516;-85
2023/07/25 00:49:35;;;;;;;7.10;3.30;;;;;;;-148.88;100.00;-17125.47;5000443;28;20022;-84
2023/07/25 00:52:00;;;;;;;7.82;3.70;;;;;;;-148.88;100.00;-17125.47;5002592;28;20412;-85
2023/07/25 00:54:26;;;;;;;7.95;3.40;;;;;;;-148.88;100.00;-17125.47;5002593;28;20476;-84
2023/07/25 00:56:51;;;;;;;7.13;3.55;;;;;;;-148.88;100.00;-17125.47;4996482;28;20085;-84
2023/07/25 00:59:17;;;;;;;7.10;3.70;;;;;;;-148.88;100.00;-17125.47;4995907;28;20033;-83
2023/07/25 01:01:42;;;;;;;7.88;3.78;;;;;;;-148.88;100.00;-17125.47;4996856;28;20034;-83
2023/07/25 01:04:08;;;;;;;10.27;3.97;;;;;;;-148.88;100.00;-17125.47;4997726;28;20390;-84
2023/07/25 01:06:34;;;;;;;8.25;3.88;;;;;;;-148.88;100.00;-17125.47;4999355;28;20477;-84
2023/07/25 01:08:59;;;;;;;11.23;4.22;;;;;;;-148.88;100.00;-17125.47;5000647;28;20500;-84
2023/07/25 01:11:25;;;;;;;7.38;4.00;;;;;;;-148.88;100.00;-17125.47;5001321;28;20026;-85
2023/07/25 01:13:51;;;;;;;9.98;4.28;;;;;;;-148.88;100.00;-17125.47;5001452;28;20455;-85
2023/07/25 01:16:27;;;;;;;9.77;4.13;;;;;;;-148.88;100.00;-17125.47;5001495;28;20034;-84
2023/07/25 01:18:54;;;;;;;9.98;3.72;;;;;;;-148.88;100.00;-17125.47;5000257;28;20030;-83
2023/07/25 01:21:21;;;;;;;11.70;4.15;;;;;;;-148.88;100.00;-17125.47;5001383;28;20032;-85
2023/07/25 01:23:47;;;;;;;8.30;3.63;;;;;;;-148.88;100.00;-17125.47;5001644;28;20023;-84
2023/07/25 01:26:13;;;;;;;9.82;3.88;;;;;;;-148.88;100.00;-17125.47;5001257;28;20030;-84
2023/07/25 01:28:43;;;;;;;9.90;4.22;;;;;;;-148.88;100.00;-17125.47;5000495;28;20473;-84
2023/07/25 01:31:09;;;;;;;10.18;4.20;;;;;;;-148.88;100.00;-17125.47;5001146;28;20042;-84
2023/07/25 01:33:34;;;;;;;7.35;4.60;;;;;;;-148.88;100.00;-17125.47;5000462;28;20037;-83
2023/07/25 01:36:00;;;;;;;8.45;4.47;;;;;;;-148.88;100.00;-17125.47;4995030;28;20026;-84
2023/07/25 01:38:26;;;;;;;8.95;4.15;;;;;;;-148.88;100.00;-17125.47;4997098;28;20039;-83
2023/07/25 01:40:54;;;;;;;8.32;4.22;;;;;;;-148.88;100.00;-17125.47;4998092;28;20053;-85
2023/07/25 01:43:22;;;;;;;10.13;4.55;;;;;;;-148.88;100.00;-17125.47;4999103;28;20022;-84
2023/07/25 01:45:50;;;;;;;10.25;4.50;;;;;;;-148.88;100.00;-17125.47;4998547;28;20053;-84
2023/07/25 01:48:16;;;;;;;12.82;4.80;;;;;;;-148.88;100.00;-17125.47;4999376;28;20018;-83
2023/07/25 01:50:44;;;;;;;8.55;4.30;;;;;;;-148.88;100.00;-17125.47;4999106;28;20041;-84
2023/07/25 01:53:12;;;;;;;11.27;4.35;;;;;;;-148.88;100.00;-17125.47;5000712;28;20492;-84
2023/07/25 01:55:48;;;;;;;11.30;4.28;;;;;;;-148.88;100.00;-17125.47;5000810;28;20405;-84
2023/07/25 01:58:16;;;;;;;11.48;4.15;;;;;;;-148.88;100.00;-17125.47;5000856;28;20473;-84
2023/07/25 02:00:44;;;;;;;13.10;5.43;;;;;;;-148.88;100.00;-17125.47;4999742;28;20022;-83
2023/07/25 02:03:10;;;;;;;11.35;4.85;;;;;;;-148.88;100.00;-17125.47;5013814;23;20454;-74
2023/07/25 02:05:36;;;;;;;10.18;4.45;;;;;;;-148.88;100.00;-17125.47;5011482;28;20550;-74
2023/07/25 02:08:01;;;;;;;12.60;4.82;;;;;;;-148.88;100.00;-17125.47;5012875;28;20032;-74
2023/07/25 02:10:27;;;;;;;13.73;4.32;;;;;;;-148.88;100.00;-17125.47;5012734;28;20026;-74
2023/07/25 02:12:53;;;;;;;9.45;4.93;;;;;;;-148.88;100.00;-17125.47;5013560;28;20072;-74
2023/07/25 02:15:18;;;;;;;7.38;3.90;;;;;;;-148.88;100.00;-17125.47;5016712;28;20029;-74
2023/07/25 02:17:44;;;;;;;9.50;4.40;;;;;;;-148.88;100.00;-17125.47;5016262;28;20065;-74
2023/07/25 02:20:09;;;;;;;10.43;4.72;;;;;;;-148.88;100.00;-17125.47;5016397;28;20056;-75
2023/07/25 02:22:35;;;;;;;9.82;4.70;;;;;;;-148.88;100.00;-17125.47;5016230;28;20049;-75
2023/07/25 02:25:00;;;;;;;9.60;4.85;;;;;;;-148.88;100.00;-17125.47;5016222;28;20053;-74
2023/07/25 02:27:26;;;;;;;13.07;5.40;;;;;;;-148.88;100.00;-17125.47;5016357;28;20021;-74
2023/07/25 02:29:52;;;;;;;10.27;4.72;;;;;;;-148.88;100.00;-17125.47;5016082;28;20101;-74
2023/07/25 02:32:17;;;;;;;8.52;4.70;;;;;;;-148.88;100.00;-17125.47;5016620;28;20113;-74
2023/07/25 02:34:42;;;;;;;13.35;5.28;;;;;;;-148.88;100.00;-17125.47;5016106;28;20053;-74
2023/07/25 02:37:08;;;;;;;10.90;5.22;;;;;;;-148.88;100.00;-17125.47;5015907;28;20039;-74
2023/07/25 02:39:33;;;;;;;9.50;4.93;;;;;;;-148.88;100.00;-17125.47;5014669;28;20022;-76
2023/07/25 02:41:58;;;;;;;11.35;5.05;;;;;;;-148.88;100.00;-17125.47;5015978;28;20029;-74
2023/07/25 02:44:24;;;;;;;14.00;5.15;;;;;;;-148.88;100.00;-17125.47;5016131;28;20018;-74
2023/07/25 02:46:49;;;;;;;13.27;5.05;;;;;;;-148.88;100.00;-17125.47;5015964;28;20032;-74
2023/07/25 02:49:14;;;;;;;12.43;5.05;;;;;;;-148.88;100.00;-17125.47;5015799;28;20112;-74
2023/07/25 02:51:39;;;;;;;12.90;4.97;;;;;;;-148.88;100.00;-17125.47;5015734;28;20110;-74
2023/07/25 02:54:05;;;;;;;11.05;5.10;;;;;;;-148.88;100.00;-17125.47;5015874;28;20057;-74
2023/07/25 02:56:30;;;;;;;11.13;5.18;;;;;;;-148.88;100.00;-17125.47;5015888;28;20115;-74
2023/07/25 02:58:56;;;;;;;13.48;5.70;;;;;;;-148.88;100.00;-17125.47;5015998;28;20065;-75
2023/07/25 03:01:21;;;;;;;14.75;5.80;;;;;;;-148.88;100.00;-17125.47;5015576;28;20109;-74
2023/07/25 03:03:46;;;;;;;15.43;6.13;;;;;;;-148.88;100.00;-17125.47;5015484;28;20026;-75
2023/07/25 03:06:12;;;;;;;11.10;5.50;;;;;;;-148.88;100.00;-17125.47;5015357;28;20025;-74
2023/07/25 03:08:37;;;;;;;12.48;5.70;;;;;;;-148.88;100.00;-17125.47;5015665;28;20026;-74
2023/07/25 03:11:03;;;;;;;10.18;5.97;;;;;;;-148.88;100.00;-17125.47;5015629;28;20080;-74
2023/07/25 03:13:28;;;;;;;14.68;6.50;;;;;;;-148.88;100.00;-17125.47;5015285;28;20017;-74
2023/07/25 03:15:53;;;;;;;13.98;6.85;;;;;;;-148.88;100.00;-17125.47;5015316;28;20030;-74
2023/07/25 03:18:19;;;;;;;11.43;6.22;;;;;;;-148.88;100.00;-17125.47;5015192;28;20030;-74
2023/07/25 03:20:44;;;;;;;12.13;6.00;;;;;;;-148.88;100.00;-17125.47;5015342;28;20024;-74
2023/07/25 03:23:09;;;;;;;11.20;6.10;;;;;;;-148.88;100.00;-17125.47;5015236;28;20022;-74
2023/07/25 03:25:35;;;;;;;12.20;6.32;;;;;;;-148.88;100.00;-17125.47;5014479;28;20558;-74
2023/07/25 03:28:00;;;;;;;14.40;6.43;;;;;;;-148.88;100.00;-17125.47;5014985;28;20030;-74
2023/07/25 03:30:25;;;;;;;8.77;5.57;;;;;;;-148.88;100.00;-17125.47;5015040;28;20026;-74
2023/07/25 03:32:52;;;;;;;13.27;6.45;;;;;;;-148.88;100.00;-17125.47;5014920;28;20018;-74
2023/07/25 03:35:17;;;;;;;12.02;6.13;;;;;;;-148.88;100.00;-17125.47;5013581;28;20400;-74
2023/07/25 03:37:42;;;;;;;9.05;5.45;;;;;;;-148.88;100.00;-17125.47;5014776;28;20029;-74
2023/07/25 03:40:08;;;;;;;12.20;5.97;;;;;;;-148.88;100.00;-17125.47;5014880;28;20101;-74
2023/07/25 03:42:33;;;;;;;9.98;5.85;;;;;;;-148.88;100.00;-17125.47;5015032;28;20499;-74
2023/07/25 03:44:59;;;;;;;11.07;6.80;;;;;;;-148.88;100.00;-17125.47;5014716;28;20081;-74
2023/07/25 03:47:24;;;;;;;11.93;6.15;;;;;;;-148.88;100.00;-17125.47;5014668;28;20096;-74
2023/07/25 03:49:49;;;;;;;13.43;6.20;;;;;;;-148.88;100.00;-17125.47;5014724;28;20445;-74
2023/07/25 03:52:15;;;;;;;13.82;7.13;;;;;;;-148.88;100.00;-17125.47;5014591;28;20556;-74
2023/07/25 03:54:40;;;;;;;14.98;6.45;;;;;;;-148.88;100.00;-17125.47;5014538;28;20038;-74
2023/07/25 03:57:06;;;;;;;18.45;7.75;;;;;;;-148.88;100.00;-17125.47;5014490;28;20038;-74
2023/07/25 03:59:31;;;;;;;11.63;6.47;;;;;;;-148.88;100.00;-17125.47;5014726;28;20026;-74
2023/07/25 04:01:56;;;;;;;13.85;6.78;;;;;;;-148.88;100.00;-17125.47;5014473;28;20030;-74
2023/07/25 04:04:22;;;;;;;16.48;6.90;;;;;;;-148.88;100.00;-17125.47;5014657;28;20362;-74
2023/07/25 04:06:47;;;;;;;14.60;7.35;;;;;;;-148.88;100.00;-17125.47;5014430;28;20022;-74
2023/07/25 04:09:14;;;;;;;12.40;7.60;;;;;;;-148.88;100.00;-17125.47;5014296;28;20104;-74
2023/07/25 04:11:40;;;;;;;12.88;7.03;;;;;;;-148.88;100.00;-17125.47;5014449;28;20032;-74
2023/07/25 04:14:06;;;;;;;12.60;7.25;;;;;;;-148.88;100.00;-17125.47;5012891;28;20030;-74
2023/07/25 04:16:31;;;;;;;16.40;6.85;;;;;;;-148.88;100.00;-17125.47;5014376;28;20034;-74
2023/07/25 04:18:56;;;;;;;13.82;6.93;;;;;;;-148.88;100.00;-17125.47;5014136;28;20026;-74
2023/07/25 04:21:22;;;;;;;14.07;7.20;;;;;;;-148.88;100.00;-17125.47;5014148;28;20568;-74
2023/07/25 04:23:47;;;;;;;13.98;7.25;;;;;;;-148.88;100.00;-17125.47;5015051;28;20018;-76
2023/07/25 04:26:12;;;;;;;11.13;7.03;;;;;;;-148.88;100.00;-17125.47;5014140;28;20084;-75
2023/07/25 04:28:38;;;;;;;14.02;6.97;;;;;;;-148.88;100.00;-17125.47;5014028;28;20045;-75
2023/07/25 04:31:03;;;;;;;13.70;7.32;;;;;;;-148.88;100.00;-17125.47;5014650;28;20021;-74
2023/07/25 04:33:28;;;;;;;9.60;6.97;;;;;;;-148.88;100.00;-17125.47;5013914;28;20033;-74
2023/07/25 04:35:54;;;;;;;8.38;6.40;;;;;;;-148.88;100.00;-17125.47;5013284;28;20100;-74
2023/07/25 04:38:19;;;;;;;12.30;7.40;;;;;;;-148.88;100.00;-17125.47;5013377;28;20440;-74
2023/07/25 04:40:44;;;;;;;15.82;6.72;;;;;;;-148.88;100.00;-17125.47;5013748;28;20030;-74
2023/07/25 04:43:10;;;;;;;15.52;7.22;;;;;;;-148.88;100.00;-17125.47;5013698;28;20123;-74
2023/07/25 04:45:36;;;;;;;14.27;7.18;;;;;;;-148.88;100.00;-17125.47;5013696;28;20030;-75
2023/07/25 04:48:02;;;;;;;11.27;7.43;;;;;;;-148.88;100.00;-17125.47;5013673;28;20121;-74
2023/07/25 04:50:27;;;;;;;9.88;7.40;;;;;;;-148.88;100.00;-17125.47;5013548;28;20105;-74
2023/07/25 04:52:53;;;;;;;10.20;6.75;;;;;;;-148.88;100.00;-17125.47;5013534;28;20026;-74
2023/07/25 04:55:18;;;;;;;10.77;6.53;;;;;;;-148.88;100.00;-17125.47;5013459;28;20117;-74
2023/07/25 04:57:44;;;;;;;18.15;7.93;;;;;;;-148.88;100.00;-17125.47;5013405;28;20133;-74
2023/07/25 05:00:09;;;;;;;12.10;7.00;;;;;;;-148.88;100.00;-17125.47;5013461;28;20049;-73
2023/07/25 05:02:35;;;;;;;10.02;6.85;;;;;;;-148.88;100.00;-17125.47;5013629;28;20037;-73
2023/07/25 05:05:01;;;;;;;12.90;7.25;;;;;;;-148.88;100.00;-17125.47;5013411;28;20026;-74
2023/07/25 05:07:26;;;;;;;17.85;7.40;;;;;;;-148.88;100.00;-17125.47;5013672;28;20025;-74
2023/07/25 05:09:51;;;;;;;12.70;6.47;;;;;;;-148.88;100.00;-17125.47;5013667;28;20036;-73
2023/07/25 05:12:17;;;;;;;10.38;6.63;;;;;;;-148.88;100.00;-17125.47;5013749;28;20024;-74
2023/07/25 05:14:42;;;;;;;13.35;6.88;;;;;;;-148.88;100.00;-17125.47;5013153;28;20072;-73
2023/07/25 05:17:07;;;;;;;12.60;6.50;;;;;;;-148.88;100.00;-17125.47;5013201;28;20499;-74
2023/07/25 05:19:33;;;;;;;11.20;5.97;;;;;;;-148.88;100.00;-17125.47;5013224;28;20033;-73
2023/07/25 05:21:58;;;;;;;13.55;6.43;;;;;;;-148.88;100.00;-17125.47;5013240;28;20018;-74
2023/07/25 05:24:24;;;;;;;11.52;5.88;;;;;;;-148.88;100.00;-17125.47;5013116;28;20045;-74
2023/07/25 05:26:49;;;;;;;12.43;6.78;;;;;;;-148.88;100.00;-17125.47;5013001;28;20029;-74
2023/07/25 05:29:15;;;;;;;13.20;6.60;;;;;;;-148.88;100.00;-17125.47;5013060;28;20064;-73
2023/07/25 05:31:40;;;;;;;10.32;6.15;;;;;;;-148.88;100.00;-17125.47;5012962;28;20053;-74
2023/07/25 05:34:05;;;;;;;13.65;6.40;;;;;;;-148.88;100.00;-17125.47;5012728;28;20072;-74
2023/07/25 05:36:31;;;;;;;9.02;6.30;;;;;;;-148.88;100.00;-17125.47;5012874;28;20033;-74
2023/07/25 05:38:56;;;;;;;15.18;6.35;;;;;;;-148.88;100.00;-17125.47;5013406;28;20034;-74
2023/07/25 05:41:22;;;;;;;17.90;6.18;;;;;;;-148.88;100.00;-17125.47;5013024;28;20022;-74
2023/07/25 05:43:47;;;;;;;12.75;5.97;;;;;;;-148.88;100.00;-17125.47;5012923;28;20022;-74
2023/07/25 05:46:13;;;;;;;12.23;5.90;;;;;;;-148.88;100.00;-17125.47;5012839;28;20121;-74
2023/07/25 05:48:39;;;;;;;12.73;5.78;;;;;;;-148.88;100.00;-17125.47;5014002;28;20112;-74
2023/07/25 05:51:04;;;;;;;11.70;5.55;;;;;;;-148.88;100.00;-17125.47;5016936;28;20060;-73
2023/07/25 05:53:29;;;;;;;10.23;5.38;;;;;;;-148.88;100.00;-17125.47;5017001;28;20049;-73
2023/07/25 05:55:55;;;;;;;12.02;5.63;;;;;;;-148.88;100.00;-17125.47;5016732;28;20060;-74
2023/07/25 05:58:20;;;;;;;15.68;5.57;;;;;;;-148.88;100.00;-17125.47;5016704;28;20389;-73
2023/07/25 06:00:47;;;;;;;18.58;5.45;;;;;;;-148.88;100.00;-17125.47;5016763;28;20030;-74
2023/07/25 06:03:13;;;;;;;10.65;5.15;;;;;;;-148.88;100.00;-17125.47;5015224;28;20023;-73
2023/07/25 06:05:39;;;;;;;14.30;5.75;;;;;;;-148.88;100.00;-17125.47;5016777;28;20032;-74
2023/07/25 06:08:06;;;;;;;10.10;5.03;;;;;;;-148.88;100.00;-17125.47;5015261;28;20034;-73
2023/07/25 06:10:31;;;;;;;14.02;5.03;;;;;;;-148.88;100.00;-17125.47;5016811;28;20017;-73
2023/07/25 06:12:57;;;;;;;12.70;5.03;;;;;;;-148.88;100.00;-17125.47;5016456;28;20022;-73
2023/07/25 06:15:23;;;;;;;12.07;5.15;;;;;;;-148.88;100.00;-17125.47;5016442;28;20440;-73
2023/07/25 06:17:48;;;;;;;8.50;4.68;;;;;;;-148.88;100.00;-17125.47;5016374;28;20067;-75
2023/07/25 06:20:13;;;;;;;9.98;5.07;;;;;;;-148.88;100.00;-17125.47;5015471;28;20484;-75
2023/07/25 06:22:39;;;;;;;9.57;4.55;;;;;;;-148.88;100.00;-17125.47;5017125;28;20037;-75
2023/07/25 06:25:07;;;;;;;9.48;4.13;;;;;;;-148.88;100.00;-17125.47;5016423;28;20022;-75
2023/07/25 06:27:33;;;;;;;10.38;4.30;;;;;;;-148.88;100.00;-17125.47;5016287;28;20025;-75
2023/07/25 06:30:00;;;;;;;12.48;4.70;;;;;;;-148.88;100.00;-17125.47;5016603;28;20104;-75
2023/07/25 06:32:25;;;;;;;11.68;4.30;;;;;;;-148.88;100.00;-17125.47;5016421;28;20093;-75
2023/07/25 06:34:50;;;;;;;11.32;4.43;;;;;;;-148.88;100.00;-17125.47;5016149;28;20022;-75
2023/07/25 06:37:17;;;;;;;8.73;3.85;;;;;;;-148.88;100.00;-17125.47;5016405;28;20026;-74
2023/07/25 06:39:42;;;;;;;12.18;4.47;;;;;;;-148.88;100.00;-17125.47;5016212;28;20025;-75
2023/07/25 06:42:08;;;;;;;9.18;3.50;;;;;;;-148.88;100.00;-17125.47;5016109;28;20425;-74
2023/07/25 06:44:33;;;;;;;10.27;3.90;;;;;;;-148.88;100.00;-17125.47;5016046;28;20021;-75
2023/07/25 06:46:58;;;;;;;8.73;3.95;;;;;;;-148.88;100.00;-17125.47;5015915;28;20026;-75
2023/07/25 06:49:24;;;;;;;9.75;3.72;;;;;;;-148.88;100.00;-17125.47;5015968;28;20026;-75
2023/07/25 06:51:49;;;;;;;10.15;3.92;;;;;;;-148.88;100.00;-17125.47;5016002;28;20052;-75
2023/07/25 06:54:14;;;;;;;10.68;3.80;;;;;;;-148.88;100.00;-17125.47;5014610;28;20400;-75
2023/07/25 06:56:40;;;;;;;9.60;3.65;;;;;;;-148.88;100.00;-17125.47;5015771;28;20029;-75
2023/07/25 06:59:05;;;;;;;11.63;3.15;;;;;;;-148.88;100.00;-17125.47;5014989;28;20025;-75
2023/07/25 07:01:30;;;;;;;10.65;3.72;;;;;;;-148.88;100.00;-17125.47;5015530;28;20026;-75
2023/07/25 07:03:56;;;;;;;10.60;3.05;;;;;;;-148.88;100.00;-17125.47;5015676;28;20415;-75
2023/07/25 07:06:21;;;;;;;8.52;3.53;;;;;;;-148.88;100.00;-17125.47;5015810;28;20468;-75
2023/07/25 07:08:46;;;;;;;12.63;3.53;;;;;;;-148.88;100.00;-17125.47;5014287;28;20032;-75
2023/07/25 07:11:12;;;;;;;8.88;3.38;;;;;;;-148.88;100.00;-17125.47;5015852;28;20105;-75
2023/07/25 07:13:37;;;;;;;6.25;3.33;;;;;;;-148.88;100.00;-17125.47;5015464;28;20018;-75
2023/07/25 07:16:03;;;;;;;8.73;3.10;;;;;;;-148.88;100.00;-17125.47;5015464;28;20030;-75
2023/07/25 07:18:28;;;;;;;6.47;2.83;;;;;;;-148.88;100.00;-17125.47;5015385;28;20392;-75
2023/07/25 07:20:54;;;;;;;9.48;2.92;;;;;;;-148.88;100.00;-17125.47;5015424;28;20057;-75
2023/07/25 07:23:19;;;;;;;8.98;3.10;;;;;;;-148.88;100.00;-17125.47;5015402;28;20109;-75
2023/07/25 07:25:45;;;;;;;7.30;2.65;;;;;;;-148.88;100.00;-17125.47;5015285;28;20053;-75
2023/07/25 07:28:10;;;;;;;6.95;2.53;;;;;;;-148.88;100.00;-17125.47;5015219;28;20030;-75
2023/07/25 07:30:36;;;;;;;7.05;2.67;;;;;;;-148.88;100.00;-17125.47;5015221;28;20400;-75
2023/07/25 07:33:01;;;;;;;6.60;2.53;;;;;;;-148.88;100.00;-17125.47;5015054;28;20045;-75
2023/07/25 07:35:26;;;;;;;5.40;2.85;;;;;;;-148.88;100.00;-17125.47;5015134;28;20049;-75
2023/07/25 07:37:52;;;;;;;9.13;2.60;;;;;;;-148.88;100.00;-17125.47;5015104;28;20029;-75
2023/07/25 07:40:17;;;;;;;8.38;2.42;;;;;;;-148.88;97.99;-17125.47;5013732;28;20029;-75
2023/07/25 07:42:42;;;;;;;8.55;2.83;;;;;;;-148.88;98.05;-17125.47;5014918;28;20033;-75
2023/07/25 07:45:08;;;;;;;6.88;2.70;;;;;;;-148.88;100.00;-17125.47;5014890;28;20030;-75
2023/07/25 07:47:33;;;;;;;6.60;2.33;;;;;;;-148.88;100.00;-17125.47;5014758;28;20026;-75
2023/07/25 07:49:59;;;;;;;6.82;2.50;;;;;;;-148.88;99.35;-17125.47;5014873;28;20018;-75
2023/07/25 07:52:25;;;;;;;8.70;3.10;;;;;;;-148.88;100.00;-17125.47;5014847;28;20117;-75
2023/07/25 07:54:51;;;;;;;7.97;2.85;;;;;;;-148.88;100.00;-17125.47;5014661;28;20022;-75
2023/07/25 07:57:16;;;;;;;7.03;3.05;;;;;;;-148.88;100.00;-17125.47;5014631;28;20087;-75
2023/07/25 07:59:43;;;;;;;8.73;2.55;;;;;;;-148.88;100.00;-17125.47;5015255;28;20054;-75
2023/07/25 08:02:08;;;;;;;11.00;3.10;;;;;;;-148.88;98.66;-17125.47;5013227;28;20088;-75
2023/07/25 08:04:33;;;;;;;10.48;2.88;;;;;;;-148.88;100.00;-17125.47;5014554;28;20018;-75
2023/07/25 08:06:59;;;;;;;7.80;2.50;;;;;;;-148.88;100.00;-17125.47;5014777;28;20056;-75
2023/07/25 08:09:24;;;;;;;7.72;3.35;;;;;;;-148.88;98.62;-17125.47;5014524;28;20400;-75
2023/07/25 08:11:49;;;;;;;6.35;2.60;;;;;;;-148.88;97.54;-17125.47;5013289;28;20024;-75
2023/07/25 08:14:15;;;;;;;7.63;2.75;;;;;;;-148.88;96.73;-17125.47;5014560;28;20044;-75
2023/07/25 08:16:40;;;;;;;7.25;2.42;;;;;;;-148.88;96.94;-17125.47;5014276;28;20109;-75
2023/07/25 08:19:06;;;;;;;6.90;2.50;;;;;;;-148.88;94.26;-17125.47;5014639;28;20054;-75
2023/07/25 08:21:32;;;;;;;8.25;3.08;;;;;;;-148.88;95.80;-17125.47;5014302;28;20080;-75
2023/07/25 08:23:57;;;;;;;5.55;2.28;;;;;;;-148.88;92.50;-17125.47;5013032;28;20022;-75
2023/07/25 08:26:23;;;;;;;10.75;2.42;;;;;;;-148.88;91.78;-17125.47;5014365;28;20021;-75
2023/07/25 08:28:48;;;;;;;6.82;2.45;;;;;;;-148.88;92.93;-17125.47;5014106;28;20109;-75
2023/07/25 08:31:13;;;;;;;6.57;2.25;;;;;;;-148.88;92.11;-17125.47;5012877;28;20124;-75
2023/07/25 08:33:42;;;;;;;5.22;2.03;;;;;;;-148.88;92.90;-17125.47;5013885;28;20110;-75
2023/07/25 08:36:08;;;;;;;6.57;2.30;;;;;;;-148.88;94.77;-17125.47;5014112;28;20500;-78
2023/07/25 08:38:33;;;;;;;10.30;2.40;;;;;;;-148.88;97.15;-17125.47;5014664;28;20026;-75
2023/07/25 08:41:08;;;;;;;7.88;2.40;;;;;;;-148.88;95.32;-17125.47;5013950;28;20021;-75
2023/07/25 08:43:37;;;;;;;5.40;2.58;;;;;;;-148.88;99.11;-17125.47;5012595;28;20397;-75
2023/07/25 08:46:06;;;;;;;6.38;2.45;;;;;;;-148.88;96.95;-17125.47;5012578;28;20044;-75
2023/07/25 08:48:34;;;;;;;7.03;2.58;;;;;;;-148.88;96.15;-17125.47;5013734;28;20088;-75
2023/07/25 08:51:01;;;;;;;7.47;2.40;;;;;;;-148.88;93.94;-17125.47;5013908;28;20428;-75
2023/07/25 08:53:28;;;;;;;5.95;2.17;;;;;;;-148.88;93.19;-17125.47;5013654;28;20030;-75
2023/07/25 08:55:55;;;;;;;4.20;1.70;;;;;;;-148.88;90.96;-17125.47;5013993;28;20120;-75
2023/07/25 08:58:21;;;;;;;7.00;2.33;;;;;;;-148.88;90.79;-17125.47;5013570;28;20117;-75
2023/07/25 09:00:48;;;;;;;6.32;2.28;;;;;;;-148.88;92.06;-17125.47;5013644;28;20064;-75
2023/07/25 09:03:14;;;;;;;6.60;2.08;;;;;;;-148.88;92.70;-17125.47;5013553;28;20030;-74
2023/07/25 09:05:40;;;;;;;7.88;2.60;;;;;;;-148.88;97.01;-17125.47;5013915;28;20025;-74
2023/07/25 09:08:05;;;;;;;7.57;2.50;;;;;;;-148.88;100.00;-17125.47;5012232;28;20026;-74
2023/07/25 09:10:31;;;;;;;5.80;2.80;;;;;;;-148.88;100.00;-17125.47;5013464;28;20029;-74
2023/07/25 09:12:56;;;;;;;5.15;2.85;;;;;;;-148.88;100.00;-17125.47;5013370;28;20026;-74
2023/07/25 09:15:22;;;;;;;7.32;2.60;;;;;;;-148.88;100.00;-17125.47;5013946;28;20022;-74
2023/07/25 09:17:52;;;;;;;5.60;2.53;;;;;;;-148.88;100.00;-17125.47;5013407;28;20025;-75
2023/07/25 09:20:17;;;;;;;6.03;2.78;;;;;;;-148.88;100.00;-17125.47;5012074;28;20021;-74
2023/07/25 09:22:46;;;;;;;5.32;2.40;;;;;;;-148.88;99.16;-17125.47;5012776;28;20021;-74
2023/07/25 09:25:14;;;;;;;7.47;2.80;;;;;;;-148.88;98.29;-17125.47;5013278;28;20018;-74
2023/07/25 09:27:39;;;;;;;8.27;2.60;;;;;;;-148.88;98.51;-17125.47;5013226;28;20083;-74
2023/07/25 09:30:12;;;;;;;5.93;2.75;;;;;;;-148.88;95.67;-17125.47;5011999;28;20514;-74
2023/07/25 09:32:37;;;;;;;6.45;2.40;;;;;;;-148.88;95.16;-17125.47;5012001;28;20075;-74
2023/07/25 09:35:06;;;;;;;6.40;2.35;;;;;;;-148.88;93.79;-17125.47;5013171;28;20026;-74
2023/07/25 09:37:31;;;;;;;6.00;2.60;;;;;;;-148.88;95.49;-17125.47;5011831;28;20040;-74
2023/07/25 09:39:57;;;;;;;7.10;2.70;;;;;;;-148.88;96.38;-17125.47;5013150;28;20067;-75
2023/07/25 09:42:24;;;;;;;6.32;1.90;;;;;;;-148.88;93.17;-17125.47;5013472;28;20036;-74
2023/07/25 09:44:52;;;;;;;5.38;2.13;;;;;;;-148.88;93.04;-17125.47;5013107;28;20053;-74
2023/07/25 09:47:22;;;;;;;5.50;2.20;;;;;;;-148.88;95.01;-17125.47;5012986;28;20389;-75
2023/07/25 09:49:48;;;;;;;5.47;2.40;;;;;;;-148.88;94.70;-17125.47;5013113;28;20088;-74
2023/07/25 09:52:14;;;;;;;5.85;2.30;;;;;;;-148.88;95.13;-17125.47;5013582;28;20033;-74
2023/07/25 09:54:39;;;;;;;5.85;2.25;;;;;;;-148.88;95.02;-17125.47;5012927;28;20030;-74
2023/07/25 09:57:05;;;;;;;6.63;2.40;;;;;;;-148.88;94.38;-17125.47;5012920;28;20022;-74
2023/07/25 09:59:30;;;;;;;7.55;2.85;;;;;;;-148.88;96.38;-17125.47;5011855;28;20026;-75
2023/07/25 10:01:56;;;;;;;5.40;2.40;;;;;;;-148.88;95.89;-17125.47;5011728;28;20029;-78
2023/07/25 10:04:24;;;;;;;6.55;2.17;;;;;;;-148.88;94.19;-17125.47;5013097;28;20033;-76
2023/07/25 10:06:50;;;;;;;8.18;2.70;;;;;;;-148.88;95.48;-17125.47;5012989;28;20112;-76
2023/07/25 10:09:17;;;;;;;8.95;2.42;;;;;;;-148.88;94.77;-17125.47;5013233;28;20029;-75
2023/07/25 10:11:43;;;;;;;4.88;2.22;;;;;;;-148.88;96.02;-17125.47;5011851;28;20458;-75
2023/07/25 10:14:09;;;;;;;7.95;2.42;;;;;;;-148.88;95.03;-17125.47;5011523;28;20026;-75
2023/07/25 10:16:36;;;;;;;7.82;2.60;;;;;;;-148.88;94.95;-17125.47;5013032;28;20084;-75
2023/07/25 10:19:05;;;;;;;4.95;2.45;;;;;;;-148.88;95.21;-17125.47;5012811;28;20044;-75
2023/07/25 10:21:46;;;;;;;10.68;2.20;;;;;;;-148.88;91.00;-17125.47;5012822;28;20028;-75
2023/07/25 10:24:12;;;;;;;4.97;1.90;;;;;;;-148.88;89.95;-17125.47;5012653;28;20395;-75
2023/07/25 10:26:53;;;;;;;5.10;1.83;;;;;;;-148.88;87.16;-17125.47;5012666;28;20065;-75
2023/07/25 10:29:39;;;;;;;6.35;2.10;;;;;;;-148.88;87.45;-17125.47;5011581;28;20042;-75
2023/07/25 10:32:05;;;;;;;4.85;1.73;;;;;;;-148.88;84.74;-17125.47;5012867;28;20018;-74
2023/07/25 10:34:46;;;;;;;4.93;1.60;;;;;;;-148.88;82.74;-17125.47;5014661;28;20032;-74
2023/07/25 10:37:29;;;;;;;3.65;1.10;;;;;;;-148.88;78.74;-17125.47;5016092;28;20081;-74
2023/07/25 10:40:11;;;;;;;4.22;1.13;;;;;;;-148.88;75.83;-17125.47;5016220;28;20029;-74
2023/07/25 10:42:45;;;;;;;3.38;1.08;;;;;;;-148.88;74.76;-17125.47;5014877;28;20030;-75
2023/07/25 10:45:29;;;;;;;5.25;1.48;;;;;;;-148.88;73.28;-17125.47;5015981;28;20022;-75
2023/07/25 10:48:02;;;;;;;4.35;1.90;;;;;;;-148.88;75.50;-17125.47;5014653;28;20021;-74
2023/07/25 10:50:49;;;;;;;5.50;1.45;;;;;;;-148.88;75.35;-17125.47;5016218;28;20092;-74
2023/07/25 10:53:16;;;;;;;5.15;1.42;;;;;;;-148.88;73.77;-17125.47;5015725;28;20049;-74
2023/07/25 10:56:03;;;;;;;4.63;1.42;;;;;;;-148.88;74.13;-17125.47;5015855;28;20098;-74